createdAt,value
2018-07-06T00:02:37.328Z,23.60
2018-07-06T00:05:16.303Z,23.60
2018-07-06T00:07:55.307Z,23.60
2018-07-06T00:10:34.179Z,23.60
2018-07-06T00:13:13.161Z,23.60
2018-07-06T00:15:52.215Z,23.50
2018-07-06T00:18:31.051Z,23.50
2018-07-06T00:21:09.964Z,23.50
2018-07-06T00:23:49.126Z,23.50
2018-07-06T00:26:28.283Z,23.50
2018-07-06T00:29:07.436Z,23.50
2018-07-06T00:31:46.334Z,23.40
2018-07-06T00:34:25.314Z,23.40
2018-07-06T00:37:04.197Z,23.40
2018-07-06T00:39:43.177Z,23.40
2018-07-06T00:42:22.030Z,23.40
2018-07-06T00:45:01.038Z,23.30
2018-07-06T00:47:40.080Z,23.20
2018-07-06T00:50:19.045Z,23.30
2018-07-06T00:52:58.197Z,23.20
2018-07-06T00:55:37.137Z,23.20
2018-07-06T00:58:16.114Z,23.20
2018-07-06T01:00:55.069Z,23.20
2018-07-06T01:03:34.229Z,23.20
2018-07-06T01:06:13.265Z,23.20
2018-07-06T01:08:52.160Z,23.20
2018-07-06T01:11:31.066Z,23.20
2018-07-06T01:14:10.243Z,23.10
2018-07-06T01:16:49.209Z,23.10
2018-07-06T01:19:28.373Z,23.10
2018-07-06T01:22:07.503Z,23.10
2018-07-06T01:24:46.529Z,23.10
2018-07-06T01:27:25.625Z,23.10
2018-07-06T01:30:04.661Z,23.00
2018-07-06T01:32:43.630Z,23.00
2018-07-06T01:35:22.688Z,23.10
2018-07-06T01:38:01.809Z,23.10
2018-07-06T01:40:40.918Z,23.10
2018-07-06T01:43:19.958Z,23.10
2018-07-06T01:45:58.906Z,23.00
2018-07-06T01:48:37.875Z,23.00
2018-07-06T01:51:16.849Z,22.90
2018-07-06T01:53:55.857Z,22.90
2018-07-06T01:59:08.138Z,22.80
2018-07-06T02:01:47.081Z,22.80
2018-07-06T02:04:26.010Z,22.70
2018-07-06T02:07:05.019Z,22.60
2018-07-06T02:09:43.922Z,22.50
2018-07-06T02:12:22.921Z,22.40
2018-07-06T02:15:01.982Z,22.30
2018-07-06T02:17:41.036Z,22.30
2018-07-06T02:20:20.058Z,22.20
2018-07-06T02:22:58.930Z,22.20
2018-07-06T02:25:37.805Z,22.20
2018-07-06T02:28:17.006Z,22.20
2018-07-06T02:30:56.054Z,22.20
2018-07-06T02:33:34.970Z,22.20
2018-07-06T02:36:14.057Z,22.20
2018-07-06T02:38:52.923Z,22.20
2018-07-06T02:41:32.035Z,22.20
2018-07-06T02:44:11.166Z,22.20
2018-07-06T02:46:50.195Z,22.20
2018-07-06T02:49:29.139Z,22.20
2018-07-06T02:52:08.170Z,22.20
2018-07-06T02:54:47.216Z,22.20
2018-07-06T02:57:26.086Z,22.20
2018-07-06T03:00:05.107Z,22.20
2018-07-06T03:02:45.261Z,22.10
2018-07-06T03:05:24.296Z,22.20
2018-07-06T03:08:03.237Z,22.20
2018-07-06T03:10:42.206Z,22.20
2018-07-06T03:13:21.361Z,22.20
2018-07-06T03:16:00.352Z,22.20
2018-07-06T03:18:39.462Z,22.10
2018-07-06T03:21:18.535Z,22.10
2018-07-06T03:23:57.591Z,22.10
2018-07-06T03:26:36.761Z,22.10
2018-07-06T03:29:16.304Z,22.10
2018-07-06T03:31:55.430Z,22.10
2018-07-06T03:34:34.511Z,22.10
2018-07-06T03:37:13.547Z,22.10
2018-07-06T03:39:52.518Z,22.10
2018-07-06T03:42:31.561Z,22.10
2018-07-06T03:45:10.677Z,22.10
2018-07-06T03:47:49.632Z,22.10
2018-07-06T03:50:28.769Z,22.10
2018-07-06T03:53:07.775Z,22.10
2018-07-06T03:55:46.600Z,22.10
2018-07-06T03:58:25.901Z,22.10
2018-07-06T04:01:04.971Z,22.10
2018-07-06T04:03:43.984Z,22.10
2018-07-06T04:06:22.999Z,22.10
2018-07-06T04:09:02.117Z,22.10
2018-07-06T04:11:41.281Z,22.10
2018-07-06T04:14:20.382Z,22.10
2018-07-06T04:16:59.301Z,22.10
2018-07-06T04:19:38.376Z,22.00
2018-07-06T04:22:17.486Z,22.10
2018-07-06T04:24:56.578Z,22.00
2018-07-06T04:27:35.609Z,22.00
2018-07-06T04:30:14.697Z,22.00
2018-07-06T04:32:53.769Z,22.00
2018-07-06T04:35:32.949Z,22.00
2018-07-06T04:38:11.841Z,21.90
2018-07-06T04:40:50.989Z,21.90
2018-07-06T04:43:29.919Z,21.90
2018-07-06T04:46:09.002Z,21.80
2018-07-06T04:48:47.913Z,21.70
2018-07-06T04:51:26.812Z,21.70
2018-07-06T04:54:06.062Z,21.80
2018-07-06T04:56:45.115Z,21.80
2018-07-06T04:59:24.187Z,21.80
2018-07-06T05:02:03.606Z,21.80
2018-07-06T05:04:42.910Z,21.90
2018-07-06T05:07:22.005Z,21.90
2018-07-06T05:10:01.078Z,21.90
2018-07-06T05:12:40.106Z,21.90
2018-07-06T05:15:19.067Z,21.90
2018-07-06T05:17:58.186Z,22.00
2018-07-06T05:20:37.277Z,22.00
2018-07-06T05:23:16.439Z,21.90
2018-07-06T05:25:55.420Z,21.90
2018-07-06T05:28:34.542Z,21.90
2018-07-06T05:31:13.515Z,21.90
2018-07-06T05:33:52.698Z,21.90
2018-07-06T05:36:31.658Z,21.90
2018-07-06T05:39:10.696Z,21.90
2018-07-06T05:41:49.791Z,21.90
2018-07-06T05:44:28.977Z,21.90
2018-07-06T05:49:41.202Z,21.90
2018-07-06T05:52:20.211Z,21.90
2018-07-06T05:54:59.141Z,21.90
2018-07-06T05:57:38.070Z,21.90
2018-07-06T06:00:17.094Z,22.00
2018-07-06T06:02:56.171Z,22.00
2018-07-06T06:05:35.159Z,22.10
2018-07-06T06:08:01.638Z,22.10
2018-07-06T06:10:29.082Z,22.20
2018-07-06T06:12:56.659Z,22.20
2018-07-06T06:15:24.139Z,22.20
2018-07-06T06:17:51.640Z,22.20
2018-07-06T06:20:19.174Z,22.20
2018-07-06T06:22:46.579Z,22.30
2018-07-06T06:25:14.093Z,22.30
2018-07-06T06:27:41.608Z,22.30
2018-07-06T06:30:09.270Z,22.30
2018-07-06T06:32:36.947Z,22.30
2018-07-06T06:35:04.547Z,22.40
2018-07-06T06:37:32.205Z,22.40
2018-07-06T06:39:59.690Z,22.30
2018-07-06T06:42:27.134Z,22.40
2018-07-06T06:44:54.703Z,22.50
2018-07-06T06:47:22.271Z,22.50
2018-07-06T06:49:49.886Z,22.50
2018-07-06T06:52:17.511Z,22.50
2018-07-06T06:54:45.067Z,22.50
2018-07-06T06:57:12.543Z,22.50
2018-07-06T06:59:40.436Z,22.50
2018-07-06T07:02:07.958Z,22.50
2018-07-06T07:04:35.825Z,22.60
2018-07-06T07:07:03.370Z,22.60
2018-07-06T07:09:30.953Z,22.60
2018-07-06T07:11:58.465Z,22.60
2018-07-06T07:14:26.000Z,22.60
2018-07-06T07:16:53.471Z,22.70
2018-07-06T07:19:20.929Z,22.70
2018-07-06T07:21:48.474Z,22.70
2018-07-06T07:24:16.045Z,22.70
2018-07-06T07:26:43.556Z,22.60
2018-07-06T07:29:11.179Z,22.70
2018-07-06T07:31:38.864Z,22.70
2018-07-06T07:34:06.398Z,22.70
2018-07-06T07:36:33.913Z,22.80
2018-07-06T07:39:01.549Z,22.80
2018-07-06T07:41:28.948Z,22.80
2018-07-06T07:43:56.507Z,22.80
2018-07-06T07:46:24.096Z,22.80
2018-07-06T07:48:51.562Z,22.80
2018-07-06T07:51:57.889Z,22.80
2018-07-06T07:54:28.743Z,22.80
2018-07-06T07:56:57.551Z,22.70
2018-07-06T07:59:25.847Z,22.70
2018-07-06T08:01:53.429Z,22.60
2018-07-06T08:04:21.278Z,22.60
2018-07-06T08:06:48.834Z,22.60
2018-07-06T08:09:16.532Z,22.70
2018-07-06T08:11:44.463Z,22.70
2018-07-06T08:14:11.994Z,22.70
2018-07-06T08:16:39.882Z,22.70
2018-07-06T08:19:08.033Z,22.70
2018-07-06T08:21:35.924Z,22.60
2018-07-06T08:24:03.859Z,22.60
2018-07-06T08:26:31.357Z,22.60
2018-07-06T08:28:58.943Z,22.50
2018-07-06T08:31:26.393Z,22.40
2018-07-06T08:34:05.421Z,22.50
2018-07-06T08:37:50.499Z,22.50
2018-07-06T08:40:18.718Z,22.50
2018-07-06T08:42:47.499Z,22.60
2018-07-06T08:45:14.975Z,22.60
2018-07-06T08:47:42.994Z,22.70
2018-07-06T08:50:10.644Z,22.70
2018-07-06T08:52:39.094Z,22.80
2018-07-06T08:55:06.835Z,22.90
2018-07-06T08:57:34.869Z,22.90
2018-07-06T09:00:02.416Z,22.90
2018-07-06T09:02:30.047Z,22.90
2018-07-06T09:04:58.235Z,22.90
2018-07-06T09:07:25.899Z,23.00
2018-07-06T09:09:54.078Z,23.00
2018-07-06T09:12:21.565Z,23.10
2018-07-06T09:14:49.093Z,23.20
2018-07-06T09:17:17.710Z,23.20
2018-07-06T09:19:45.681Z,23.20
2018-07-06T09:22:13.674Z,23.10
2018-07-06T09:24:41.667Z,23.20
2018-07-06T09:27:09.190Z,23.20
2018-07-06T09:29:36.722Z,23.20
2018-07-06T09:32:04.771Z,23.20
2018-07-06T09:34:32.235Z,23.20
2018-07-06T09:36:59.747Z,23.20
2018-07-06T09:39:27.176Z,23.20
2018-07-06T09:41:54.714Z,23.20
2018-07-06T09:44:22.355Z,23.20
2018-07-06T09:46:49.837Z,23.20
2018-07-06T09:49:17.451Z,23.20
2018-07-06T09:51:45.085Z,23.20
2018-07-06T09:54:12.777Z,23.20
2018-07-06T09:59:07.791Z,23.20
2018-07-06T10:01:35.322Z,23.20
2018-07-06T10:04:03.179Z,23.20
2018-07-06T10:06:30.853Z,23.20
2018-07-06T10:08:58.422Z,23.30
2018-07-06T10:13:53.736Z,23.20
2018-07-06T10:16:21.459Z,23.30
2018-07-06T10:18:48.978Z,23.30
2018-07-06T10:21:16.406Z,23.30
2018-07-06T10:23:43.959Z,23.30
2018-07-06T10:28:52.763Z,23.30
2018-07-06T10:32:03.837Z,23.30
2018-07-06T10:34:31.535Z,23.30
2018-07-06T10:36:59.085Z,23.30
2018-07-06T10:39:26.573Z,23.30
2018-07-06T10:41:54.083Z,23.30
2018-07-06T10:44:21.622Z,23.40
2018-07-06T10:46:49.070Z,23.40
2018-07-06T10:49:16.535Z,23.50
2018-07-06T10:51:44.230Z,23.50
2018-07-06T10:54:11.676Z,23.50
2018-07-06T10:56:39.114Z,23.60
2018-07-06T10:59:06.709Z,23.60
2018-07-06T11:01:34.294Z,23.60
2018-07-06T11:04:01.987Z,23.60
2018-07-06T11:06:29.582Z,23.70
2018-07-06T11:08:57.060Z,23.70
2018-07-06T11:11:24.569Z,23.70
2018-07-06T11:13:52.043Z,23.70
2018-07-06T11:16:19.559Z,23.80
2018-07-06T11:18:47.158Z,23.90
2018-07-06T11:21:14.607Z,23.90
2018-07-06T11:26:09.718Z,24.00
2018-07-06T11:28:37.185Z,24.00
2018-07-06T11:31:05.100Z,24.10
2018-07-06T11:33:32.542Z,24.10
2018-07-06T11:36:00.199Z,24.20
2018-07-06T11:38:27.870Z,24.20
2018-07-06T11:40:55.322Z,24.20
2018-07-06T11:43:22.977Z,24.20
2018-07-06T11:45:50.522Z,24.20
2018-07-06T11:48:18.108Z,24.30
2018-07-06T11:50:45.817Z,24.30
2018-07-06T11:53:13.303Z,24.30
2018-07-06T11:55:40.853Z,24.30
2018-07-06T11:58:08.348Z,24.40
2018-07-06T12:00:36.165Z,24.40
2018-07-06T12:03:03.735Z,24.50
2018-07-06T12:05:31.386Z,24.50
2018-07-06T12:07:58.999Z,24.50
2018-07-06T12:10:26.861Z,24.60
2018-07-06T12:12:54.376Z,24.60
2018-07-06T12:15:22.054Z,24.60
2018-07-06T12:17:49.940Z,24.60
2018-07-06T12:20:17.534Z,24.70
2018-07-06T12:22:45.102Z,24.80
2018-07-06T12:25:12.599Z,24.90
2018-07-06T12:27:40.102Z,24.90
2018-07-06T12:30:07.691Z,25.00
2018-07-06T12:32:35.433Z,25.00
2018-07-06T12:37:30.599Z,25.10
2018-07-06T12:39:58.265Z,25.10
2018-07-06T12:42:25.761Z,25.10
2018-07-06T12:44:53.425Z,25.10
2018-07-06T12:47:20.906Z,25.20
2018-07-06T12:49:48.618Z,25.30
2018-07-06T12:52:16.069Z,25.30
2018-07-06T12:54:43.681Z,25.40
2018-07-06T12:57:11.109Z,25.40
2018-07-06T13:02:06.578Z,25.40
2018-07-06T13:04:34.694Z,25.40
2018-07-06T13:07:02.140Z,25.50
2018-07-06T13:09:29.818Z,25.60
2018-07-06T13:11:57.313Z,25.60
2018-07-06T13:14:25.028Z,25.70
2018-07-06T13:16:52.660Z,25.80
2018-07-06T13:19:20.110Z,25.90
2018-07-06T13:21:47.911Z,26.00
2018-07-06T13:24:15.407Z,26.00
2018-07-06T13:26:42.962Z,26.00
2018-07-06T13:29:10.404Z,26.10
2018-07-06T13:34:06.083Z,26.10
2018-07-06T13:36:33.757Z,26.10
2018-07-06T13:39:01.301Z,26.10
2018-07-06T13:41:28.851Z,26.20
2018-07-06T13:43:56.513Z,26.20
2018-07-06T13:48:51.935Z,26.40
2018-07-06T13:51:19.339Z,26.40
2018-07-06T13:53:46.891Z,26.50
2018-07-06T13:56:14.329Z,26.50
2018-07-06T13:58:42.037Z,26.40
2018-07-06T14:03:37.135Z,26.30
2018-07-06T14:06:05.218Z,26.20
2018-07-06T14:08:32.995Z,26.20
2018-07-06T14:11:00.529Z,26.20
2018-07-06T14:13:28.239Z,26.20
2018-07-06T14:15:55.764Z,26.20
2018-07-06T14:20:51.112Z,26.30
2018-07-06T14:23:18.740Z,26.40
2018-07-06T14:25:46.534Z,26.50
2018-07-06T14:28:13.989Z,26.50
2018-07-06T14:30:41.626Z,26.60
2018-07-06T14:33:09.137Z,26.80
2018-07-06T14:35:36.807Z,26.90
2018-07-06T14:38:04.974Z,27.00
2018-07-06T14:40:32.782Z,27.10
2018-07-06T14:43:00.299Z,27.10
2018-07-06T14:45:28.093Z,27.10
2018-07-06T14:47:55.554Z,27.20
2018-07-06T14:50:23.255Z,27.30
2018-07-06T14:52:50.725Z,27.30
2018-07-06T14:55:18.511Z,27.30
2018-07-06T14:57:46.015Z,27.30
2018-07-06T15:00:14.015Z,27.30
2018-07-06T15:02:41.470Z,27.20
2018-07-06T15:05:09.022Z,27.10
2018-07-06T15:07:36.834Z,27.10
2018-07-06T15:12:32.267Z,27.10
2018-07-06T15:14:59.849Z,27.10
2018-07-06T15:17:27.530Z,27.10
2018-07-06T15:19:55.100Z,27.00
2018-07-06T15:22:22.786Z,27.00
2018-07-06T15:24:50.389Z,26.80
2018-07-06T15:27:17.887Z,26.80
2018-07-06T15:29:45.646Z,26.80
2018-07-06T15:32:13.129Z,26.90
2018-07-06T15:34:40.967Z,27.10
2018-07-06T15:37:08.511Z,27.20
2018-07-06T15:39:36.015Z,27.30
2018-07-06T15:42:03.920Z,27.30
2018-07-06T15:44:32.331Z,27.20
2018-07-06T15:46:59.896Z,27.10
2018-07-06T15:49:27.702Z,27.00
2018-07-06T15:51:55.260Z,26.90
2018-07-06T15:54:22.970Z,27.00
2018-07-06T15:56:50.955Z,27.10
2018-07-06T15:59:18.603Z,27.20
2018-07-06T16:01:46.094Z,27.30
2018-07-06T16:04:13.805Z,27.50
2018-07-06T16:06:41.268Z,27.70
2018-07-06T16:09:09.162Z,27.70
2018-07-06T16:11:36.781Z,27.80
2018-07-06T16:14:04.721Z,27.70
2018-07-06T16:16:32.313Z,27.80
2018-07-06T16:18:59.756Z,28.00
2018-07-06T16:21:27.600Z,28.30
2018-07-06T16:23:56.379Z,28.50
2018-07-06T16:26:23.871Z,28.60
2018-07-06T16:28:51.565Z,28.60
2018-07-06T16:31:19.129Z,28.40
2018-07-06T16:33:46.683Z,28.40
2018-07-06T16:36:14.541Z,28.30
2018-07-06T16:38:42.066Z,28.10
2018-07-06T16:41:09.751Z,28.00
2018-07-06T16:43:37.288Z,27.80
2018-07-06T16:46:05.534Z,27.70
2018-07-06T16:48:33.102Z,27.60
2018-07-06T16:51:01.363Z,27.40
2018-07-06T16:53:28.805Z,27.40
2018-07-06T16:55:56.310Z,27.40
2018-07-06T16:58:23.765Z,27.40
2018-07-06T17:00:51.530Z,27.40
2018-07-06T17:03:19.304Z,27.50
2018-07-06T17:05:48.313Z,27.60
2018-07-06T17:08:15.776Z,27.60
2018-07-06T17:10:43.334Z,27.70
2018-07-06T17:13:10.879Z,27.70
2018-07-06T17:15:38.836Z,27.70
2018-07-06T17:18:06.632Z,27.70
2018-07-06T17:20:34.101Z,27.70
2018-07-06T17:23:01.759Z,27.70
2018-07-06T17:25:29.335Z,27.60
2018-07-06T17:27:57.008Z,27.50
2018-07-06T17:30:25.213Z,27.50
2018-07-06T17:32:52.937Z,27.50
2018-07-06T17:37:48.299Z,27.60
2018-07-06T17:40:15.798Z,27.50
2018-07-06T17:42:43.421Z,27.50
2018-07-06T17:45:11.084Z,27.50
2018-07-06T17:50:06.669Z,27.50
2018-07-06T17:52:34.211Z,27.40
2018-07-06T17:55:01.916Z,27.30
2018-07-06T17:57:29.386Z,27.20
2018-07-06T17:59:56.902Z,27.10
2018-07-06T18:02:24.454Z,27.10
2018-07-06T18:04:52.265Z,27.10
2018-07-06T18:09:47.399Z,27.00
2018-07-06T18:12:14.915Z,26.90
2018-07-06T18:14:42.393Z,26.90
2018-07-06T18:17:09.919Z,26.90
2018-07-06T18:19:37.701Z,26.90
2018-07-06T18:22:05.356Z,26.80
2018-07-06T18:24:32.836Z,26.80
2018-07-06T18:27:00.409Z,26.80
2018-07-06T18:31:55.494Z,26.70
2018-07-06T18:34:23.026Z,26.60
2018-07-06T18:41:46.145Z,26.50
2018-07-06T18:44:13.827Z,26.50
2018-07-06T18:46:41.345Z,26.40
2018-07-06T18:49:08.991Z,26.40
2018-07-06T18:51:36.659Z,26.40
2018-07-06T18:54:04.388Z,26.40
2018-07-06T18:56:31.863Z,26.30
2018-07-06T18:58:59.380Z,26.40
2018-07-06T19:01:27.003Z,26.50
2018-07-06T19:03:54.673Z,26.50
2018-07-06T19:06:22.158Z,26.50
2018-07-06T19:08:49.829Z,26.50
2018-07-06T19:11:17.268Z,26.50
2018-07-06T19:13:45.070Z,26.50
2018-07-06T19:16:12.494Z,26.50
2018-07-06T19:18:40.263Z,26.50
2018-07-06T19:21:07.937Z,26.50
2018-07-06T19:23:35.529Z,26.50
2018-07-06T19:26:03.089Z,26.40
2018-07-06T19:28:31.091Z,26.50
2018-07-06T19:30:58.572Z,26.50
2018-07-06T19:33:26.514Z,26.40
2018-07-06T19:35:54.009Z,26.40
2018-07-06T19:38:21.609Z,26.40
2018-07-06T19:40:49.389Z,26.40
2018-07-06T19:43:17.028Z,26.40
2018-07-06T19:45:44.805Z,26.30
2018-07-06T19:48:12.362Z,26.40
2018-07-06T19:50:40.080Z,26.30
2018-07-06T19:53:07.541Z,26.30
2018-07-06T19:55:35.246Z,26.30
2018-07-06T19:58:02.782Z,26.20
2018-07-06T20:00:30.303Z,26.30
2018-07-06T20:02:58.441Z,26.20
2018-07-06T20:05:25.963Z,26.20
2018-07-06T20:07:53.770Z,26.20
2018-07-06T20:10:21.326Z,26.20
2018-07-06T20:12:49.023Z,26.10
2018-07-06T20:15:16.724Z,26.10
2018-07-06T20:17:44.197Z,25.90
2018-07-06T20:20:12.065Z,26.10
2018-07-06T20:22:39.578Z,26.10
2018-07-06T20:25:07.410Z,26.00
2018-07-06T20:27:34.830Z,26.00
2018-07-06T20:30:02.573Z,26.00
2018-07-06T20:32:30.161Z,26.00
2018-07-06T20:34:58.329Z,26.00
2018-07-06T20:37:25.825Z,26.00
2018-07-06T20:39:53.773Z,26.00
2018-07-06T20:42:21.315Z,25.90
2018-07-06T20:44:49.141Z,25.90
2018-07-06T20:47:16.623Z,25.90
2018-07-06T20:52:11.914Z,25.90
2018-07-06T20:54:39.568Z,25.90
2018-07-06T20:57:07.082Z,25.90
2018-07-06T20:59:34.739Z,25.90
2018-07-06T21:02:02.890Z,25.90
2018-07-06T21:04:30.532Z,25.90
2018-07-06T21:06:58.241Z,25.80
2018-07-06T21:09:25.780Z,25.80
2018-07-06T21:11:53.446Z,25.80
2018-07-06T21:14:20.909Z,25.80
2018-07-06T21:16:48.571Z,25.70
2018-07-06T21:19:15.983Z,25.70
2018-07-06T21:21:43.589Z,25.70
2018-07-06T21:24:11.048Z,25.70
2018-07-06T21:26:38.646Z,25.70
2018-07-06T21:29:06.351Z,25.70
2018-07-06T21:31:33.903Z,25.60
2018-07-06T21:34:01.314Z,25.60
2018-07-06T21:38:56.270Z,25.60
2018-07-06T21:41:23.658Z,25.50
2018-07-06T21:43:51.571Z,25.50
2018-07-06T21:46:19.260Z,25.50
2018-07-06T21:48:46.823Z,25.50
2018-07-06T21:51:14.287Z,25.50
2018-07-06T21:53:41.814Z,25.40
2018-07-06T21:56:09.265Z,25.40
2018-07-06T22:01:04.158Z,25.40
2018-07-06T22:03:32.321Z,25.40
2018-07-06T22:05:59.960Z,25.30
2018-07-06T22:08:27.415Z,25.30
2018-07-06T22:10:54.830Z,25.30
2018-07-06T22:13:22.298Z,25.30
2018-07-06T22:15:49.827Z,25.30
2018-07-06T22:18:18.234Z,25.30
2018-07-06T22:20:46.758Z,25.30
2018-07-06T22:23:14.809Z,25.30
2018-07-06T22:25:42.594Z,25.30
2018-07-06T22:28:10.410Z,25.30
2018-07-06T22:30:38.050Z,25.20
2018-07-06T22:33:05.543Z,25.20
2018-07-06T22:35:33.127Z,25.20
2018-07-06T22:38:00.746Z,25.20
2018-07-06T22:40:28.281Z,25.20
2018-07-06T22:42:55.842Z,25.10
2018-07-06T22:45:23.330Z,25.10
2018-07-06T22:47:50.868Z,25.10
2018-07-06T22:50:18.338Z,25.10
2018-07-06T22:52:45.791Z,25.10
2018-07-06T22:55:13.278Z,25.00
2018-07-06T22:57:40.747Z,25.00
2018-07-06T23:00:08.256Z,25.00
2018-07-06T23:02:36.027Z,25.00
2018-07-06T23:05:09.053Z,25.00
2018-07-06T23:10:04.290Z,24.90
2018-07-06T23:12:32.265Z,24.90
2018-07-06T23:17:27.225Z,24.90
2018-07-06T23:19:54.727Z,24.90
2018-07-06T23:22:34.454Z,24.80
2018-07-06T23:25:01.981Z,24.80
2018-07-06T23:27:29.370Z,24.80
2018-07-06T23:29:56.905Z,24.80
2018-07-06T23:32:24.429Z,24.80
2018-07-06T23:34:51.907Z,24.80
2018-07-06T23:37:19.337Z,24.70
2018-07-06T23:39:46.783Z,24.70
2018-07-06T23:42:14.235Z,24.70
2018-07-06T23:44:41.658Z,24.60
2018-07-06T23:47:09.130Z,24.60
2018-07-06T23:49:42.671Z,24.60
2018-07-06T23:52:10.171Z,24.60
2018-07-06T23:54:37.749Z,24.50
2018-07-06T23:57:05.139Z,24.50
2018-07-06T23:59:32.670Z,24.50
